sensor_id;sensor_type;location;lat;lon;timestamp;temperature;humidity
33811;DHT22;20119;48.334;16.206;2022-08-21T00:01:07;17.70;99.90
33811;DHT22;20119;48.334;16.206;2022-08-21T00:03:39;17.60;99.90
33811;DHT22;20119;48.334;16.206;2022-08-21T00:06:11;17.60;99.90
33811;DHT22;20119;48.334;16.206;2022-08-21T00:08:41;17.60;99.90
33811;DHT22;20119;48.334;16.206;2022-08-21T00:11:12;17.70;99.90
33811;DHT22;20119;48.334;16.206;2022-08-21T00:13:41;17.60;99.90
33811;DHT22;20119;48.334;16.206;2022-08-21T00:16:11;17.60;99.90
33811;DHT22;20119;48.334;16.206;2022-08-21T00:18:42;17.70;99.90
33811;DHT22;20119;48.334;16.206;2022-08-21T00:21:13;17.70;99.90
33811;DHT22;20119;48.334;16.206;2022-08-21T00:23:47;17.70;99.90
33811;DHT22;20119;48.334;16.206;2022-08-21T00:26:18;17.70;99.90
33811;DHT22;20119;48.334;16.206;2022-08-21T00:28:50;17.70;99.90
33811;DHT22;20119;48.334;16.206;2022-08-21T00:31:23;17.70;99.90
33811;DHT22;20119;48.334;16.206;2022-08-21T00:46:58;17.70;99.90
33811;DHT22;20119;48.334;16.206;2022-08-21T00:52:19;17.70;99.90
33811;DHT22;20119;48.334;16.206;2022-08-21T01:58:14;17.60;99.90
33811;DHT22;20119;48.334;16.206;2022-08-21T02:00:48;17.50;99.90
33811;DHT22;20119;48.334;16.206;2022-08-21T02:03:23;17.50;99.90
33811;DHT22;20119;48.334;16.206;2022-08-21T02:05:55;17.60;99.90
33811;DHT22;20119;48.334;16.206;2022-08-21T02:16:15;17.60;99.90
33811;DHT22;20119;48.334;16.206;2022-08-21T03:36:28;17.20;99.90
33811;DHT22;20119;48.334;16.206;2022-08-21T03:38:56;17.20;99.90
33811;DHT22;20119;48.334;16.206;2022-08-21T03:41:24;17.20;99.90
33811;DHT22;20119;48.334;16.206;2022-08-21T03:54:15;17.10;99.90
33811;DHT22;20119;48.334;16.206;2022-08-21T03:56:42;17.20;99.90
33811;DHT22;20119;48.334;16.206;2022-08-21T03:59:10;17.20;99.90
33811;DHT22;20119;48.334;16.206;2022-08-21T04:01:39;17.20;99.90
33811;DHT22;20119;48.334;16.206;2022-08-21T04:19:41;17.10;99.90
33811;DHT22;20119;48.334;16.206;2022-08-21T04:39:38;17.10;99.90
33811;DHT22;20119;48.334;16.206;2022-08-21T04:42:05;17.30;99.90
33811;DHT22;20119;48.334;16.206;2022-08-21T04:44:34;17.20;99.90
33811;DHT22;20119;48.334;16.206;2022-08-21T04:47:02;17.20;99.90
33811;DHT22;20119;48.334;16.206;2022-08-21T04:49:31;17.20;99.90
33811;DHT22;20119;48.334;16.206;2022-08-21T04:51:59;17.20;99.90
33811;DHT22;20119;48.334;16.206;2022-08-21T04:54:29;17.20;99.90
33811;DHT22;20119;48.334;16.206;2022-08-21T04:57:04;17.30;99.90
33811;DHT22;20119;48.334;16.206;2022-08-21T04:59:39;17.30;99.90
33811;DHT22;20119;48.334;16.206;2022-08-21T05:02:08;17.30;99.90
33811;DHT22;20119;48.334;16.206;2022-08-21T05:04:43;17.30;99.90
33811;DHT22;20119;48.334;16.206;2022-08-21T05:07:14;17.30;99.90
33811;DHT22;20119;48.334;16.206;2022-08-21T05:09:43;17.30;99.90
33811;DHT22;20119;48.334;16.206;2022-08-21T05:12:13;17.30;99.90
33811;DHT22;20119;48.334;16.206;2022-08-21T05:14:41;17.40;99.90
33811;DHT22;20119;48.334;16.206;2022-08-21T05:17:09;17.40;99.90
33811;DHT22;20119;48.334;16.206;2022-08-21T05:30:08;17.50;99.90
33811;DHT22;20119;48.334;16.206;2022-08-21T10:11:29;18.90;99.90
33811;DHT22;20119;48.334;16.206;2022-08-21T10:29:47;19.20;99.90
33811;DHT22;20119;48.334;16.206;2022-08-21T11:03:29;19.00;99.90
33811;DHT22;20119;48.334;16.206;2022-08-21T11:19:13;20.30;99.90
33811;DHT22;20119;48.334;16.206;2022-08-21T11:21:56;20.40;99.90
33811;DHT22;20119;48.334;16.206;2022-08-21T11:24:32;20.40;99.90
33811;DHT22;20119;48.334;16.206;2022-08-21T11:27:21;20.70;99.90
33811;DHT22;20119;48.334;16.206;2022-08-21T11:30:27;20.50;99.90
33811;DHT22;20119;48.334;16.206;2022-08-21T11:33:40;20.30;99.90
33811;DHT22;20119;48.334;16.206;2022-08-21T13:56:52;19.90;99.90
33811;DHT22;20119;48.334;16.206;2022-08-21T14:04:35;20.10;99.90
33811;DHT22;20119;48.334;16.206;2022-08-21T14:07:18;20.10;99.90
33811;DHT22;20119;48.334;16.206;2022-08-21T14:09:55;20.10;99.90
33811;DHT22;20119;48.334;16.206;2022-08-21T14:12:29;20.10;99.90
33811;DHT22;20119;48.334;16.206;2022-08-21T14:15:03;20.10;99.90
33811;DHT22;20119;48.334;16.206;2022-08-21T14:17:35;20.20;99.90
33811;DHT22;20119;48.334;16.206;2022-08-21T14:20:11;20.10;99.90
33811;DHT22;20119;48.334;16.206;2022-08-21T14:22:47;20.20;99.90
33811;DHT22;20119;48.334;16.206;2022-08-21T14:25:30;20.10;99.90
33811;DHT22;20119;48.334;16.206;2022-08-21T14:28:14;20.20;99.90
33811;DHT22;20119;48.334;16.206;2022-08-21T14:30:45;20.20;99.90
33811;DHT22;20119;48.334;16.206;2022-08-21T14:33:23;20.30;99.90
33811;DHT22;20119;48.334;16.206;2022-08-21T14:36:05;20.30;99.90
33811;DHT22;20119;48.334;16.206;2022-08-21T14:38:41;20.30;99.90
33811;DHT22;20119;48.334;16.206;2022-08-21T14:41:16;20.30;99.90
33811;DHT22;20119;48.334;16.206;2022-08-21T14:43:53;20.20;99.90
33811;DHT22;20119;48.334;16.206;2022-08-21T14:46:26;20.10;99.90
33811;DHT22;20119;48.334;16.206;2022-08-21T14:48:55;20.10;99.90
33811;DHT22;20119;48.334;16.206;2022-08-21T14:51:23;20.10;99.90
33811;DHT22;20119;48.334;16.206;2022-08-21T14:53:52;20.10;99.90
33811;DHT22;20119;48.334;16.206;2022-08-21T14:56:21;20.10;99.90
33811;DHT22;20119;48.334;16.206;2022-08-21T14:59:03;20.20;99.90
33811;DHT22;20119;48.334;16.206;2022-08-21T15:01:36;20.20;99.90
33811;DHT22;20119;48.334;16.206;2022-08-21T15:04:06;20.20;99.90
33811;DHT22;20119;48.334;16.206;2022-08-21T15:06:43;20.30;99.90
33811;DHT22;20119;48.334;16.206;2022-08-21T15:09:19;20.30;99.90
33811;DHT22;20119;48.334;16.206;2022-08-21T15:11:58;20.30;99.90
33811;DHT22;20119;48.334;16.206;2022-08-21T15:14:32;20.20;99.90
33811;DHT22;20119;48.334;16.206;2022-08-21T15:17:03;20.20;99.90
33811;DHT22;20119;48.334;16.206;2022-08-21T15:19:32;20.10;99.90
33811;DHT22;20119;48.334;16.206;2022-08-21T15:21:59;20.10;99.90
33811;DHT22;20119;48.334;16.206;2022-08-21T15:24:28;20.10;99.90
33811;DHT22;20119;48.334;16.206;2022-08-21T15:27:00;20.10;99.90
33811;DHT22;20119;48.334;16.206;2022-08-21T15:35:34;20.10;99.90
33811;DHT22;20119;48.334;16.206;2022-08-21T15:38:14;20.10;99.90
33811;DHT22;20119;48.334;16.206;2022-08-21T15:40:58;20.10;99.90
33811;DHT22;20119;48.334;16.206;2022-08-21T15:46:22;20.00;99.90
33811;DHT22;20119;48.334;16.206;2022-08-21T15:48:51;19.90;99.90
33811;DHT22;20119;48.334;16.206;2022-08-21T15:53:56;19.80;99.90
33811;DHT22;20119;48.334;16.206;2022-08-21T15:56:28;19.70;99.90
33811;DHT22;20119;48.334;16.206;2022-08-21T16:01:58;19.60;99.90
33811;DHT22;20119;48.334;16.206;2022-08-21T16:04:31;19.60;99.90
33811;DHT22;20119;48.334;16.206;2022-08-21T16:07:26;19.60;99.90
33811;DHT22;20119;48.334;16.206;2022-08-21T16:10:01;19.50;99.90
33811;DHT22;20119;48.334;16.206;2022-08-21T16:12:34;19.50;99.90
33811;DHT22;20119;48.334;16.206;2022-08-21T16:15:12;19.50;99.90
33811;DHT22;20119;48.334;16.206;2022-08-21T16:17:44;19.50;99.90
33811;DHT22;20119;48.334;16.206;2022-08-21T16:20:19;19.50;99.90
33811;DHT22;20119;48.334;16.206;2022-08-21T16:22:50;19.50;99.90
33811;DHT22;20119;48.334;16.206;2022-08-21T16:25:21;19.40;99.90
33811;DHT22;20119;48.334;16.206;2022-08-21T16:27:52;19.40;99.90
33811;DHT22;20119;48.334;16.206;2022-08-21T16:30:19;19.40;99.90
33811;DHT22;20119;48.334;16.206;2022-08-21T16:32:48;19.40;99.90
33811;DHT22;20119;48.334;16.206;2022-08-21T16:35:21;19.40;99.90
33811;DHT22;20119;48.334;16.206;2022-08-21T16:37:51;19.40;99.90
33811;DHT22;20119;48.334;16.206;2022-08-21T16:40:24;19.40;99.90
33811;DHT22;20119;48.334;16.206;2022-08-21T16:42:52;19.40;99.90
33811;DHT22;20119;48.334;16.206;2022-08-21T16:45:20;19.40;99.90
33811;DHT22;20119;48.334;16.206;2022-08-21T16:47:47;19.40;99.90
33811;DHT22;20119;48.334;16.206;2022-08-21T16:50:20;19.40;99.90
33811;DHT22;20119;48.334;16.206;2022-08-21T16:52:49;19.40;99.90
33811;DHT22;20119;48.334;16.206;2022-08-21T16:55:18;19.40;99.90
33811;DHT22;20119;48.334;16.206;2022-08-21T16:57:47;19.40;99.90
33811;DHT22;20119;48.334;16.206;2022-08-21T17:00:30;19.40;99.90
33811;DHT22;20119;48.334;16.206;2022-08-21T17:03:04;19.40;99.90
33811;DHT22;20119;48.334;16.206;2022-08-21T17:05:35;19.50;99.90
33811;DHT22;20119;48.334;16.206;2022-08-21T17:08:05;19.40;99.90
33811;DHT22;20119;48.334;16.206;2022-08-21T17:10:35;19.40;99.90
33811;DHT22;20119;48.334;16.206;2022-08-21T17:13:14;19.40;99.90
33811;DHT22;20119;48.334;16.206;2022-08-21T17:15:42;19.40;99.90
33811;DHT22;20119;48.334;16.206;2022-08-21T17:18:14;19.40;99.90
33811;DHT22;20119;48.334;16.206;2022-08-21T17:20:45;19.30;99.90
33811;DHT22;20119;48.334;16.206;2022-08-21T17:26:08;19.30;99.90
33811;DHT22;20119;48.334;16.206;2022-08-21T17:28:40;19.30;99.90
33811;DHT22;20119;48.334;16.206;2022-08-21T17:31:11;19.20;99.90
33811;DHT22;20119;48.334;16.206;2022-08-21T17:33:49;19.20;99.90
33811;DHT22;20119;48.334;16.206;2022-08-21T17:36:31;19.20;99.90
33811;DHT22;20119;48.334;16.206;2022-08-21T17:39:22;19.20;99.90
33811;DHT22;20119;48.334;16.206;2022-08-21T17:41:56;19.20;99.90
33811;DHT22;20119;48.334;16.206;2022-08-21T17:44:38;19.10;99.90
33811;DHT22;20119;48.334;16.206;2022-08-21T17:47:17;19.20;99.90
33811;DHT22;20119;48.334;16.206;2022-08-21T17:49:46;19.10;99.90
33811;DHT22;20119;48.334;16.206;2022-08-21T17:52:15;19.10;99.90
33811;DHT22;20119;48.334;16.206;2022-08-21T17:55:08;19.10;99.90
33811;DHT22;20119;48.334;16.206;2022-08-21T18:08:48;18.90;99.90
33811;DHT22;20119;48.334;16.206;2022-08-21T18:16:38;18.70;99.90
33811;DHT22;20119;48.334;16.206;2022-08-21T18:29:46;18.60;99.90
33811;DHT22;20119;48.334;16.206;2022-08-21T18:34:58;18.60;99.90
33811;DHT22;20119;48.334;16.206;2022-08-21T18:38:01;18.60;99.90
33811;DHT22;20119;48.334;16.206;2022-08-21T18:43:19;18.50;99.90
33811;DHT22;20119;48.334;16.206;2022-08-21T18:48:32;18.40;99.90
33811;DHT22;20119;48.334;16.206;2022-08-21T18:53:42;18.40;99.90
33811;DHT22;20119;48.334;16.206;2022-08-21T18:56:18;18.40;99.90
33811;DHT22;20119;48.334;16.206;2022-08-21T18:59:09;18.40;99.90
33811;DHT22;20119;48.334;16.206;2022-08-21T19:01:54;18.50;99.90
33811;DHT22;20119;48.334;16.206;2022-08-21T19:04:36;18.50;99.90
33811;DHT22;20119;48.334;16.206;2022-08-21T19:22:56;18.60;99.90
33811;DHT22;20119;48.334;16.206;2022-08-21T19:31:01;18.60;99.90
33811;DHT22;20119;48.334;16.206;2022-08-21T19:33:53;18.60;99.90
33811;DHT22;20119;48.334;16.206;2022-08-21T19:36:22;18.60;99.90
33811;DHT22;20119;48.334;16.206;2022-08-21T19:38:52;18.50;99.90
33811;DHT22;20119;48.334;16.206;2022-08-21T19:41:22;18.50;99.90
33811;DHT22;20119;48.334;16.206;2022-08-21T19:44:01;18.60;99.90
33811;DHT22;20119;48.334;16.206;2022-08-21T19:46:33;18.60;99.90
33811;DHT22;20119;48.334;16.206;2022-08-21T19:49:04;18.50;99.90
33811;DHT22;20119;48.334;16.206;2022-08-21T19:51:35;18.50;99.90
33811;DHT22;20119;48.334;16.206;2022-08-21T19:54:13;18.50;99.90
33811;DHT22;20119;48.334;16.206;2022-08-21T19:56:43;18.50;99.90
33811;DHT22;20119;48.334;16.206;2022-08-21T19:59:18;18.40;99.90
33811;DHT22;20119;48.334;16.206;2022-08-21T20:01:52;18.50;99.90
33811;DHT22;20119;48.334;16.206;2022-08-21T20:07:01;18.40;99.90
33811;DHT22;20119;48.334;16.206;2022-08-21T20:15:01;18.40;99.90
33811;DHT22;20119;48.334;16.206;2022-08-21T20:17:33;18.40;99.90
33811;DHT22;20119;48.334;16.206;2022-08-21T23:21:58;16.80;99.90
33811;DHT22;20119;48.334;16.206;2022-08-21T23:24:41;16.80;99.90
